Etusivu
METAR-TAF:

METAR-TAF

Lentoasemat :

Siskiyou County Airport

Montague, Kalifornia, Yhdysvallat

Leveyspiiri: 41-46-53N, Pituuspiiri: 122-28-05W, korkeus merenpinnasta: 807 m

Tämänhetkinen sää

Tämä raportti tehtiin 49 minuuttia sitten, kello 05.53 UTC
tyyntä
Lämpötila 0°C
Kosteus 69%
Ilmanpaine 1022 hPa
Näkyvyys: 16.1 km
selkeää

METAR: KSIY 010553Z AUTO 00000KT 10SM CLR 00/M05 A3019 RMK AO2 SLP249 T00001050 10139 20000 53001

Aika: 22:42 (06:42 UTC)


TAF: puuttuu

Säähavainnot ja -ennusteet yli 4000 lentoasemalta (METAR- ja TAF-raportit).

Käytössä olevat sääasemat on merkitty karttaan keltaisilla ja punaisilla pisteillä.

Aseta hiiri pisteen päälle nähdäksesi sääaseman nimen.

Klikkaa sitten nähdäksesi säähavainnot ja -ennusteet.

Kartan vaihtaminen: klikkaa mustalla rastilla varustettuja vihreitä pisteitä, niin voit zoomata sisään; viivalla varustettua vihreää pistettä, niin voit zoomata ulos tai vihreitä nuolia, niin pääset viereisille kartoille.


METAR-TAF: